aviador You're here:

UBBL Decoded Metar

in
Report Time2017-08-18 04:00:00
UTC Time2017-08-18 04:55:28
Flight Rules vfr VFR
Wind320° at 03 kt
W.Decomp.*RWY 33: 3.0 kt HW 0.5 kt LCW
W.Rank320° ranks 4
Current wind is below 320° avg. (5.6)
Visibility9999 m
Phenomena:N/A
Clouds:Scattered 100 Hf
Expected CloudBase > 2,000 ft AGL from Temp-Dew spread
CeilingNone
Temp26°C
Dew Point21°C (74% RH)
QNH1011 hPa
Raw Report
METAR UBBL 180400Z 32003KT 9999 SCT100 26/21 Q1011
R33/CLRD// NOSIG RMK MT OP=

Extra information for UBBL:More info

Social comments